Map

Track Data

SID SEASON NUMBER BASIN SUBBASIN NAME ISO_TIME NATURE LAT LON WMO_WIND WMO_PRES WMO_AGENCY TRACK_TYPE DIST2LAND LANDFALL IFLAG USA_AGENCY USA_ATCF_ID USA_LAT USA_LON USA_RECORD USA_STATUS USA_WIND USA_PRES USA_SSHS USA_R34_NE USA_R34_SE USA_R34_SW USA_R34_NW USA_R50_NE USA_R50_SE USA_R50_SW USA_R50_NW USA_R64_NE USA_R64_SE USA_R64_SW USA_R64_NW USA_POCI USA_ROCI USA_RMW USA_EYE TOKYO_LAT TOKYO_LON TOKYO_GRADE TOKYO_WIND TOKYO_PRES TOKYO_R50_DIR TOKYO_R50_LONG TOKYO_R50_SHORT TOKYO_R30_DIR TOKYO_R30_LONG TOKYO_R30_SHORT TOKYO_LAND CMA_LAT CMA_LON CMA_CAT CMA_WIND CMA_PRES HKO_LAT HKO_LON HKO_CAT HKO_WIND HKO_PRES NEWDELHI_LAT NEWDELHI_LON NEWDELHI_GRADE NEWDELHI_WIND NEWDELHI_PRES NEWDELHI_CI NEWDELHI_DP NEWDELHI_POCI REUNION_LAT REUNION_LON REUNION_TYPE REUNION_WIND REUNION_PRES REUNION_TNUM REUNION_CI REUNION_RMW REUNION_R34_NE REUNION_R34_SE REUNION_R34_SW REUNION_R34_NW REUNION_R50_NE REUNION_R50_SE REUNION_R50_SW REUNION_R50_NW REUNION_R64_NE REUNION_R64_SE REUNION_R64_SW REUNION_R64_NW BOM_LAT BOM_LON BOM_TYPE BOM_WIND BOM_PRES BOM_TNUM BOM_CI BOM_RMW BOM_R34_NE BOM_R34_SE BOM_R34_SW BOM_R34_NW BOM_R50_NE BOM_R50_SE BOM_R50_SW BOM_R50_NW BOM_R64_NE BOM_R64_SE BOM_R64_SW BOM_R64_NW BOM_ROCI BOM_POCI BOM_EYE BOM_POS_METHOD BOM_PRES_METHOD NADI_LAT NADI_LON NADI_CAT NADI_WIND NADI_PRES WELLINGTON_LAT WELLINGTON_LON WELLINGTON_WIND WELLINGTON_PRES DS824_LAT DS824_LON DS824_STAGE DS824_WIND DS824_PRES TD9636_LAT TD9636_LON TD9636_STAGE TD9636_WIND TD9636_PRES TD9635_LAT TD9635_LON TD9635_WIND TD9635_PRES TD9635_ROCI NEUMANN_LAT NEUMANN_LON NEUMANN_CLASS NEUMANN_WIND NEUMANN_PRES MLC_LAT MLC_LON MLC_CLASS MLC_WIND MLC_PRES USA_GUST BOM_GUST BOM_GUST_PER REUNION_GUST REUNION_GUST_PER USA_SEAHGT USA_SEARAD_NE USA_SEARAD_SE USA_SEARAD_SW USA_SEARAD_NW STORM_SPEED STORM_DIR
1905355S18414 1906 56 SI MM NOT_NAMED 1905-12-20 18:00:00 NR -18.3000 53.5000 main 355 346 __________O___ -1 -18.3000 53.5000 7 2 201
1905355S18414 1906 56 SI MM NOT_NAMED 1905-12-20 21:00:00 NR -18.3906 53.4529 main 346 343 __________P___ -1 -18.3906 53.4529 7 2 204
1905355S18414 1906 56 SI MM NOT_NAMED 1905-12-21 00:00:00 NR -18.5050 53.4047 main 343 325 __________P___ -1 -18.5050 53.4047 7 3 200
1905355S18414 1906 56 SI MM NOT_NAMED 1905-12-21 03:00:00 NR -18.6669 53.3541 main 325 314 __________P___ -1 -18.6669 53.3541 7 4 194
1905355S18414 1906 56 SI MM NOT_NAMED 1905-12-21 06:00:00 NR -18.9000 53.3000 main 314 290 __________O___ -1 -18.9000 53.3000 7 6 190
1905355S18414 1906 56 SI MM NOT_NAMED 1905-12-21 09:00:00 NR -19.2200 53.2439 main 297 267 __________P___ -1 -19.2200 53.2439 7 7 188
1905355S18414 1906 56 SI MM NOT_NAMED 1905-12-21 12:00:00 NR -19.6100 53.1982 main 267 241 __________P___ -1 -19.6100 53.1982 7 8 184
1905355S18414 1906 56 SI MM NOT_NAMED 1905-12-21 15:00:00 NR -20.0450 53.1784 main 241 218 __________P___ -1 -20.0450 53.1784 7 9 0
1905355S18414 1906 56 SI MM NOT_NAMED 1905-12-21 18:00:00 NR -20.5000 53.2000 main 218 198 __________O___ -1 -20.5000 53.2000 7 9 175
1905355S18414 1906 56 SI MM NOT_NAMED 1905-12-21 21:00:00 NR -20.9314 53.2577 main 198 189 __________P___ -1 -20.9314 53.2577 7 9 170
1905355S18414 1906 56 SI MM NOT_NAMED 1905-12-22 00:00:00 NR -21.3773 53.3605 main 189 188 __________P___ -1 -21.3773 53.3605 7 9 165
1905355S18414 1906 56 SI MM NOT_NAMED 1905-12-22 03:00:00 NR -21.8345 53.5080 main 192 192 __________P___ -1 -21.8345 53.5080 7 10 161
1905355S18414 1906 56 SI MM NOT_NAMED 1905-12-22 06:00:00 NR -22.3000 53.7000 main 199 197 __________O___ -1 -22.3000 53.7000 7 10 158
1905355S18414 1906 56 SI MM NOT_NAMED 1905-12-22 09:00:00 NR -22.7719 53.9237 main 221 214 __________P___ -1 -22.7719 53.9237 7 11 155
1905355S18414 1906 56 SI MM NOT_NAMED 1905-12-22 12:00:00 NR -23.2500 54.1901 main 250 250 __________P___ -1 -23.2500 54.1901 7 11 152
1905355S18414 1906 56 SI MM NOT_NAMED 1905-12-22 15:00:00 NR -23.7281 54.4864 main 280 280 __________P___ -1 -23.7281 54.4864 7 11 150
1905355S18414 1906 56 SI MM NOT_NAMED 1905-12-22 18:00:00 NR -24.2000 54.8000 main 323 323 __________O___ -1 -24.2000 54.8000 7 11 148
1905355S18414 1906 56 SI MM NOT_NAMED 1905-12-22 21:00:00 NR -24.6611 55.1198 main 372 371 __________P___ -1 -24.6611 55.1198 7 11 147
1905355S18414 1906 56 SI MM NOT_NAMED 1905-12-23 00:00:00 NR -25.1129 55.4434 main 414 413 __________P___ -1 -25.1129 55.4434 7 11 147
1905355S18414 1906 56 SI MM NOT_NAMED 1905-12-23 03:00:00 NR -25.5583 55.7703 main 469 469 __________P___ -1 -25.5583 55.7703 7 11 146
1905355S18414 1906 56 SI MM NOT_NAMED 1905-12-23 06:00:00 NR -26.0000 56.1000 main 516 __________O___ -1 -26.0000 56.1000 7 11 146

About IBTrACS Database

This database is a web-friendly format of International Best Track Archive for Climate Stewardship (IBTrACS), a global best track data archive curated by NOAA dating back to 1842.

Updated: 2021-11-26